sensor_id;sensor_type;location;lat;lon;timestamp;P1;durP1;ratioP1;P2;durP2;ratioP2
30647;SDS011;17683;53.360;9.736;2024-03-17T00:02:24;11.70;;;2.55;;
30647;SDS011;17683;53.360;9.736;2024-03-17T00:04:50;11.93;;;2.58;;
30647;SDS011;17683;53.360;9.736;2024-03-17T00:07:16;19.80;;;3.45;;
30647;SDS011;17683;53.360;9.736;2024-03-17T00:09:41;17.83;;;2.58;;
30647;SDS011;17683;53.360;9.736;2024-03-17T00:12:07;21.88;;;4.95;;
30647;SDS011;17683;53.360;9.736;2024-03-17T00:14:37;15.30;;;2.75;;
30647;SDS011;17683;53.360;9.736;2024-03-17T00:17:04;14.45;;;2.47;;
30647;SDS011;17683;53.360;9.736;2024-03-17T00:19:29;17.48;;;2.83;;
30647;SDS011;17683;53.360;9.736;2024-03-17T00:21:55;7.97;;;1.90;;
30647;SDS011;17683;53.360;9.736;2024-03-17T00:24:21;18.00;;;3.30;;
30647;SDS011;17683;53.360;9.736;2024-03-17T00:26:47;15.05;;;2.35;;
30647;SDS011;17683;53.360;9.736;2024-03-17T00:29:14;23.48;;;3.70;;
30647;SDS011;17683;53.360;9.736;2024-03-17T00:31:42;10.50;;;2.95;;
30647;SDS011;17683;53.360;9.736;2024-03-17T00:34:08;9.43;;;2.08;;
30647;SDS011;17683;53.360;9.736;2024-03-17T00:36:35;9.40;;;2.30;;
30647;SDS011;17683;53.360;9.736;2024-03-17T00:39:01;7.75;;;2.90;;
30647;SDS011;17683;53.360;9.736;2024-03-17T00:41:28;7.72;;;1.95;;
30647;SDS011;17683;53.360;9.736;2024-03-17T00:43:54;16.85;;;2.47;;
30647;SDS011;17683;53.360;9.736;2024-03-17T00:46:20;10.38;;;2.50;;
30647;SDS011;17683;53.360;9.736;2024-03-17T00:48:48;16.08;;;2.70;;
30647;SDS011;17683;53.360;9.736;2024-03-17T00:51:15;33.97;;;3.00;;
30647;SDS011;17683;53.360;9.736;2024-03-17T00:53:41;14.98;;;3.00;;
30647;SDS011;17683;53.360;9.736;2024-03-17T00:56:07;17.02;;;3.00;;
30647;SDS011;17683;53.360;9.736;2024-03-17T00:58:33;18.23;;;3.80;;
30647;SDS011;17683;53.360;9.736;2024-03-17T01:00:59;13.95;;;2.35;;
30647;SDS011;17683;53.360;9.736;2024-03-17T01:03:24;9.73;;;2.42;;
30647;SDS011;17683;53.360;9.736;2024-03-17T01:05:50;9.98;;;2.75;;
30647;SDS011;17683;53.360;9.736;2024-03-17T01:08:17;14.90;;;2.47;;
30647;SDS011;17683;53.360;9.736;2024-03-17T01:10:44;15.35;;;2.03;;
30647;SDS011;17683;53.360;9.736;2024-03-17T01:13:14;15.93;;;2.70;;
30647;SDS011;17683;53.360;9.736;2024-03-17T01:15:40;16.58;;;2.83;;
30647;SDS011;17683;53.360;9.736;2024-03-17T01:18:06;20.67;;;3.72;;
30647;SDS011;17683;53.360;9.736;2024-03-17T01:20:34;16.60;;;2.85;;
30647;SDS011;17683;53.360;9.736;2024-03-17T01:23:02;15.48;;;2.42;;
30647;SDS011;17683;53.360;9.736;2024-03-17T01:25:28;11.85;;;2.88;;
30647;SDS011;17683;53.360;9.736;2024-03-17T01:27:55;14.25;;;2.78;;
30647;SDS011;17683;53.360;9.736;2024-03-17T01:30:22;4.78;;;2.00;;
30647;SDS011;17683;53.360;9.736;2024-03-17T01:32:48;14.07;;;2.65;;
30647;SDS011;17683;53.360;9.736;2024-03-17T01:35:15;10.68;;;2.80;;
30647;SDS011;17683;53.360;9.736;2024-03-17T01:37:41;18.20;;;2.95;;
30647;SDS011;17683;53.360;9.736;2024-03-17T01:40:07;9.25;;;1.83;;
30647;SDS011;17683;53.360;9.736;2024-03-17T01:42:34;9.45;;;2.03;;
30647;SDS011;17683;53.360;9.736;2024-03-17T01:45:25;11.80;;;2.15;;
30647;SDS011;17683;53.360;9.736;2024-03-17T01:47:59;8.60;;;2.33;;
30647;SDS011;17683;53.360;9.736;2024-03-17T01:50:28;7.22;;;1.95;;
30647;SDS011;17683;53.360;9.736;2024-03-17T01:53:03;6.97;;;1.70;;
30647;SDS011;17683;53.360;9.736;2024-03-17T01:55:30;11.15;;;2.15;;
30647;SDS011;17683;53.360;9.736;2024-03-17T01:58:02;11.45;;;2.30;;
30647;SDS011;17683;53.360;9.736;2024-03-17T02:00:29;11.43;;;2.25;;
30647;SDS011;17683;53.360;9.736;2024-03-17T02:02:59;18.02;;;3.60;;
30647;SDS011;17683;53.360;9.736;2024-03-17T02:05:25;11.75;;;2.65;;
30647;SDS011;17683;53.360;9.736;2024-03-17T02:07:52;10.05;;;2.72;;
30647;SDS011;17683;53.360;9.736;2024-03-17T02:10:17;7.43;;;2.35;;
30647;SDS011;17683;53.360;9.736;2024-03-17T02:12:43;9.63;;;2.35;;
30647;SDS011;17683;53.360;9.736;2024-03-17T02:15:09;11.02;;;2.20;;
30647;SDS011;17683;53.360;9.736;2024-03-17T02:17:35;16.35;;;2.92;;
30647;SDS011;17683;53.360;9.736;2024-03-17T02:20:00;14.55;;;2.80;;
30647;SDS011;17683;53.360;9.736;2024-03-17T02:22:26;10.70;;;2.17;;
30647;SDS011;17683;53.360;9.736;2024-03-17T02:24:55;8.30;;;2.40;;
30647;SDS011;17683;53.360;9.736;2024-03-17T02:27:21;12.25;;;2.30;;
30647;SDS011;17683;53.360;9.736;2024-03-17T02:29:47;9.55;;;2.15;;
30647;SDS011;17683;53.360;9.736;2024-03-17T02:32:13;9.85;;;2.28;;
30647;SDS011;17683;53.360;9.736;2024-03-17T02:34:39;14.40;;;2.95;;
30647;SDS011;17683;53.360;9.736;2024-03-17T02:37:05;11.07;;;2.50;;
30647;SDS011;17683;53.360;9.736;2024-03-17T02:39:32;8.65;;;2.63;;
30647;SDS011;17683;53.360;9.736;2024-03-17T02:42:02;11.98;;;2.58;;
30647;SDS011;17683;53.360;9.736;2024-03-17T02:44:31;12.00;;;2.65;;
30647;SDS011;17683;53.360;9.736;2024-03-17T02:46:58;11.40;;;2.83;;
30647;SDS011;17683;53.360;9.736;2024-03-17T02:49:25;13.60;;;2.38;;
30647;SDS011;17683;53.360;9.736;2024-03-17T02:51:52;19.27;;;3.03;;
30647;SDS011;17683;53.360;9.736;2024-03-17T02:54:21;9.82;;;3.03;;
30647;SDS011;17683;53.360;9.736;2024-03-17T02:56:50;18.15;;;2.92;;
30647;SDS011;17683;53.360;9.736;2024-03-17T02:59:16;14.73;;;3.75;;
30647;SDS011;17683;53.360;9.736;2024-03-17T03:01:42;10.75;;;3.45;;
30647;SDS011;17683;53.360;9.736;2024-03-17T03:04:08;16.75;;;3.53;;
30647;SDS011;17683;53.360;9.736;2024-03-17T03:06:34;13.45;;;2.80;;
30647;SDS011;17683;53.360;9.736;2024-03-17T03:09:00;10.82;;;3.25;;
30647;SDS011;17683;53.360;9.736;2024-03-17T03:11:26;8.73;;;2.45;;
30647;SDS011;17683;53.360;9.736;2024-03-17T03:13:52;16.15;;;2.92;;
30647;SDS011;17683;53.360;9.736;2024-03-17T03:16:18;10.90;;;2.38;;
30647;SDS011;17683;53.360;9.736;2024-03-17T03:18:44;8.10;;;2.00;;
30647;SDS011;17683;53.360;9.736;2024-03-17T03:21:10;4.32;;;1.83;;
30647;SDS011;17683;53.360;9.736;2024-03-17T03:23:37;9.98;;;2.28;;
30647;SDS011;17683;53.360;9.736;2024-03-17T03:26:03;15.27;;;2.72;;
30647;SDS011;17683;53.360;9.736;2024-03-17T03:28:32;10.07;;;2.80;;
30647;SDS011;17683;53.360;9.736;2024-03-17T03:31:01;9.95;;;2.38;;
30647;SDS011;17683;53.360;9.736;2024-03-17T03:33:27;18.10;;;2.35;;
30647;SDS011;17683;53.360;9.736;2024-03-17T03:35:53;15.02;;;2.53;;
30647;SDS011;17683;53.360;9.736;2024-03-17T03:38:20;14.18;;;4.05;;
30647;SDS011;17683;53.360;9.736;2024-03-17T03:40:47;12.02;;;2.70;;
30647;SDS011;17683;53.360;9.736;2024-03-17T03:43:13;19.52;;;3.45;;
30647;SDS011;17683;53.360;9.736;2024-03-17T03:45:39;11.88;;;3.17;;
30647;SDS011;17683;53.360;9.736;2024-03-17T03:48:06;11.25;;;2.95;;
30647;SDS011;17683;53.360;9.736;2024-03-17T03:50:37;11.35;;;2.25;;
30647;SDS011;17683;53.360;9.736;2024-03-17T03:53:03;12.02;;;2.80;;
30647;SDS011;17683;53.360;9.736;2024-03-17T03:55:30;15.75;;;3.22;;
30647;SDS011;17683;53.360;9.736;2024-03-17T03:57:56;13.52;;;2.42;;
30647;SDS011;17683;53.360;9.736;2024-03-17T04:00:22;12.93;;;2.65;;
30647;SDS011;17683;53.360;9.736;2024-03-17T04:02:49;8.80;;;2.55;;
30647;SDS011;17683;53.360;9.736;2024-03-17T04:05:16;13.02;;;2.50;;
30647;SDS011;17683;53.360;9.736;2024-03-17T04:07:46;17.60;;;4.18;;
30647;SDS011;17683;53.360;9.736;2024-03-17T04:10:13;15.57;;;3.42;;
30647;SDS011;17683;53.360;9.736;2024-03-17T04:12:40;17.88;;;3.03;;
30647;SDS011;17683;53.360;9.736;2024-03-17T04:15:07;14.10;;;3.58;;
30647;SDS011;17683;53.360;9.736;2024-03-17T04:17:35;17.63;;;3.20;;
30647;SDS011;17683;53.360;9.736;2024-03-17T04:20:02;14.93;;;2.38;;
30647;SDS011;17683;53.360;9.736;2024-03-17T04:22:30;18.70;;;2.83;;
30647;SDS011;17683;53.360;9.736;2024-03-17T04:24:56;11.07;;;2.75;;
30647;SDS011;17683;53.360;9.736;2024-03-17T04:27:22;8.77;;;2.85;;
30647;SDS011;17683;53.360;9.736;2024-03-17T04:29:52;10.88;;;2.55;;
30647;SDS011;17683;53.360;9.736;2024-03-17T04:32:21;14.40;;;3.60;;
30647;SDS011;17683;53.360;9.736;2024-03-17T04:34:48;12.68;;;2.72;;
30647;SDS011;17683;53.360;9.736;2024-03-17T04:37:14;14.35;;;2.80;;
30647;SDS011;17683;53.360;9.736;2024-03-17T04:39:40;11.38;;;3.47;;
30647;SDS011;17683;53.360;9.736;2024-03-17T04:42:10;14.48;;;3.75;;
30647;SDS011;17683;53.360;9.736;2024-03-17T04:44:36;12.43;;;2.70;;
30647;SDS011;17683;53.360;9.736;2024-03-17T04:47:03;10.38;;;4.00;;
30647;SDS011;17683;53.360;9.736;2024-03-17T04:49:35;13.65;;;3.47;;
30647;SDS011;17683;53.360;9.736;2024-03-17T04:52:01;14.85;;;3.00;;
30647;SDS011;17683;53.360;9.736;2024-03-17T04:54:28;16.13;;;3.22;;
30647;SDS011;17683;53.360;9.736;2024-03-17T04:56:53;12.77;;;2.60;;
30647;SDS011;17683;53.360;9.736;2024-03-17T04:59:19;15.07;;;2.80;;
30647;SDS011;17683;53.360;9.736;2024-03-17T05:01:45;15.23;;;3.05;;
30647;SDS011;17683;53.360;9.736;2024-03-17T05:04:11;19.27;;;3.50;;
30647;SDS011;17683;53.360;9.736;2024-03-17T05:06:37;22.75;;;3.17;;
30647;SDS011;17683;53.360;9.736;2024-03-17T05:09:02;37.80;;;4.53;;
30647;SDS011;17683;53.360;9.736;2024-03-17T05:11:30;30.50;;;4.32;;
30647;SDS011;17683;53.360;9.736;2024-03-17T05:13:56;35.80;;;6.10;;
30647;SDS011;17683;53.360;9.736;2024-03-17T05:16:22;34.70;;;6.50;;
30647;SDS011;17683;53.360;9.736;2024-03-17T05:18:49;36.00;;;5.93;;
30647;SDS011;17683;53.360;9.736;2024-03-17T05:21:15;24.98;;;5.18;;
30647;SDS011;17683;53.360;9.736;2024-03-17T05:23:40;42.35;;;6.32;;
30647;SDS011;17683;53.360;9.736;2024-03-17T05:26:06;38.88;;;5.47;;
30647;SDS011;17683;53.360;9.736;2024-03-17T05:28:32;31.05;;;4.55;;
30647;SDS011;17683;53.360;9.736;2024-03-17T05:30:58;33.75;;;6.72;;
30647;SDS011;17683;53.360;9.736;2024-03-17T05:33:24;28.98;;;5.32;;
30647;SDS011;17683;53.360;9.736;2024-03-17T05:35:52;33.38;;;6.00;;
30647;SDS011;17683;53.360;9.736;2024-03-17T05:38:21;33.80;;;6.15;;
30647;SDS011;17683;53.360;9.736;2024-03-17T05:43:29;25.65;;;5.57;;
30647;SDS011;17683;53.360;9.736;2024-03-17T05:45:58;25.48;;;5.35;;
30647;SDS011;17683;53.360;9.736;2024-03-17T05:48:26;36.33;;;6.68;;
30647;SDS011;17683;53.360;9.736;2024-03-17T05:50:52;31.08;;;5.47;;
30647;SDS011;17683;53.360;9.736;2024-03-17T05:53:22;24.15;;;6.80;;
30647;SDS011;17683;53.360;9.736;2024-03-17T05:55:51;27.13;;;6.22;;
30647;SDS011;17683;53.360;9.736;2024-03-17T05:58:17;19.55;;;5.85;;
30647;SDS011;17683;53.360;9.736;2024-03-17T06:00:43;19.58;;;5.45;;
30647;SDS011;17683;53.360;9.736;2024-03-17T06:03:09;13.73;;;5.53;;
30647;SDS011;17683;53.360;9.736;2024-03-17T06:05:36;12.90;;;4.53;;
30647;SDS011;17683;53.360;9.736;2024-03-17T06:08:04;16.80;;;5.65;;
30647;SDS011;17683;53.360;9.736;2024-03-17T06:10:31;10.35;;;4.85;;
30647;SDS011;17683;53.360;9.736;2024-03-17T06:12:57;14.68;;;5.25;;
30647;SDS011;17683;53.360;9.736;2024-03-17T06:15:24;9.43;;;4.20;;
30647;SDS011;17683;53.360;9.736;2024-03-17T06:17:50;9.98;;;4.20;;
30647;SDS011;17683;53.360;9.736;2024-03-17T06:20:20;6.32;;;3.58;;
30647;SDS011;17683;53.360;9.736;2024-03-17T06:22:46;10.05;;;3.22;;
30647;SDS011;17683;53.360;9.736;2024-03-17T06:25:12;4.38;;;3.10;;
30647;SDS011;17683;53.360;9.736;2024-03-17T06:27:38;5.03;;;3.38;;
30647;SDS011;17683;53.360;9.736;2024-03-17T06:30:04;5.10;;;3.38;;
30647;SDS011;17683;53.360;9.736;2024-03-17T06:32:32;5.43;;;3.35;;
30647;SDS011;17683;53.360;9.736;2024-03-17T06:35:03;4.90;;;2.90;;
30647;SDS011;17683;53.360;9.736;2024-03-17T06:37:29;5.97;;;3.33;;
30647;SDS011;17683;53.360;9.736;2024-03-17T06:39:55;3.90;;;2.75;;
30647;SDS011;17683;53.360;9.736;2024-03-17T06:42:21;3.63;;;2.65;;
30647;SDS011;17683;53.360;9.736;2024-03-17T06:44:47;4.57;;;2.88;;
30647;SDS011;17683;53.360;9.736;2024-03-17T06:47:13;10.77;;;3.00;;
30647;SDS011;17683;53.360;9.736;2024-03-17T06:49:38;5.53;;;2.90;;
30647;SDS011;17683;53.360;9.736;2024-03-17T06:52:04;5.18;;;3.03;;
30647;SDS011;17683;53.360;9.736;2024-03-17T06:54:30;3.60;;;2.70;;
30647;SDS011;17683;53.360;9.736;2024-03-17T06:56:59;7.82;;;3.00;;
30647;SDS011;17683;53.360;9.736;2024-03-17T06:59:25;11.32;;;3.53;;
30647;SDS011;17683;53.360;9.736;2024-03-17T07:01:50;4.53;;;2.60;;
30647;SDS011;17683;53.360;9.736;2024-03-17T07:04:16;5.78;;;2.92;;
30647;SDS011;17683;53.360;9.736;2024-03-17T07:06:42;4.57;;;2.67;;
30647;SDS011;17683;53.360;9.736;2024-03-17T07:09:08;3.55;;;3.13;;
30647;SDS011;17683;53.360;9.736;2024-03-17T07:11:34;4.18;;;2.88;;
30647;SDS011;17683;53.360;9.736;2024-03-17T07:14:00;3.10;;;2.72;;
30647;SDS011;17683;53.360;9.736;2024-03-17T07:16:26;6.40;;;2.70;;
30647;SDS011;17683;53.360;9.736;2024-03-17T07:18:52;3.97;;;3.10;;
30647;SDS011;17683;53.360;9.736;2024-03-17T07:21:18;3.75;;;3.13;;
30647;SDS011;17683;53.360;9.736;2024-03-17T07:23:44;3.28;;;2.60;;
30647;SDS011;17683;53.360;9.736;2024-03-17T07:26:10;3.35;;;2.50;;
30647;SDS011;17683;53.360;9.736;2024-03-17T07:28:36;5.53;;;2.90;;
30647;SDS011;17683;53.360;9.736;2024-03-17T07:31:05;3.63;;;2.70;;
30647;SDS011;17683;53.360;9.736;2024-03-17T07:33:34;5.82;;;3.47;;
30647;SDS011;17683;53.360;9.736;2024-03-17T07:35:59;5.13;;;3.20;;
30647;SDS011;17683;53.360;9.736;2024-03-17T07:38:26;4.35;;;3.67;;
30647;SDS011;17683;53.360;9.736;2024-03-17T07:41:03;5.13;;;3.50;;
30647;SDS011;17683;53.360;9.736;2024-03-17T07:43:33;6.35;;;3.33;;
30647;SDS011;17683;53.360;9.736;2024-03-17T07:48:30;4.53;;;3.40;;
30647;SDS011;17683;53.360;9.736;2024-03-17T07:50:59;4.15;;;3.08;;
30647;SDS011;17683;53.360;9.736;2024-03-17T07:53:27;9.55;;;3.80;;
30647;SDS011;17683;53.360;9.736;2024-03-17T07:55:56;5.75;;;3.28;;
30647;SDS011;17683;53.360;9.736;2024-03-17T07:58:26;4.13;;;3.27;;
30647;SDS011;17683;53.360;9.736;2024-03-17T08:00:53;4.32;;;3.45;;
30647;SDS011;17683;53.360;9.736;2024-03-17T08:03:24;5.00;;;3.53;;
30647;SDS011;17683;53.360;9.736;2024-03-17T08:05:51;11.35;;;3.92;;
30647;SDS011;17683;53.360;9.736;2024-03-17T08:08:18;5.63;;;3.70;;
30647;SDS011;17683;53.360;9.736;2024-03-17T08:10:44;15.98;;;4.63;;
30647;SDS011;17683;53.360;9.736;2024-03-17T08:13:11;14.45;;;4.07;;
30647;SDS011;17683;53.360;9.736;2024-03-17T08:15:41;10.10;;;4.00;;
30647;SDS011;17683;53.360;9.736;2024-03-17T08:18:07;4.43;;;3.42;;
30647;SDS011;17683;53.360;9.736;2024-03-17T08:20:36;7.60;;;3.55;;
30647;SDS011;17683;53.360;9.736;2024-03-17T08:23:03;6.00;;;4.00;;
30647;SDS011;17683;53.360;9.736;2024-03-17T08:25:30;6.70;;;4.20;;
30647;SDS011;17683;53.360;9.736;2024-03-17T08:27:57;6.50;;;3.63;;
30647;SDS011;17683;53.360;9.736;2024-03-17T08:30:23;7.22;;;4.47;;
30647;SDS011;17683;53.360;9.736;2024-03-17T08:32:49;10.68;;;4.18;;
30647;SDS011;17683;53.360;9.736;2024-03-17T08:35:14;9.18;;;4.53;;
30647;SDS011;17683;53.360;9.736;2024-03-17T08:37:40;8.93;;;4.25;;
30647;SDS011;17683;53.360;9.736;2024-03-17T08:40:06;11.57;;;4.95;;
30647;SDS011;17683;53.360;9.736;2024-03-17T08:42:32;10.02;;;4.47;;
30647;SDS011;17683;53.360;9.736;2024-03-17T08:44:58;14.07;;;6.13;;
30647;SDS011;17683;53.360;9.736;2024-03-17T08:47:24;13.55;;;5.07;;
30647;SDS011;17683;53.360;9.736;2024-03-17T08:49:52;14.13;;;5.25;;
30647;SDS011;17683;53.360;9.736;2024-03-17T08:52:18;12.82;;;5.50;;
30647;SDS011;17683;53.360;9.736;2024-03-17T08:54:47;14.45;;;5.35;;
30647;SDS011;17683;53.360;9.736;2024-03-17T08:57:13;13.43;;;5.65;;
30647;SDS011;17683;53.360;9.736;2024-03-17T08:59:39;13.50;;;5.05;;
30647;SDS011;17683;53.360;9.736;2024-03-17T09:02:05;11.30;;;5.65;;
30647;SDS011;17683;53.360;9.736;2024-03-17T09:04:38;15.37;;;5.47;;
30647;SDS011;17683;53.360;9.736;2024-03-17T09:07:04;10.20;;;4.85;;
30647;SDS011;17683;53.360;9.736;2024-03-17T09:09:30;13.05;;;4.00;;
30647;SDS011;17683;53.360;9.736;2024-03-17T09:11:56;12.02;;;3.65;;
30647;SDS011;17683;53.360;9.736;2024-03-17T09:14:21;8.50;;;2.85;;
30647;SDS011;17683;53.360;9.736;2024-03-17T09:16:47;13.55;;;3.08;;
30647;SDS011;17683;53.360;9.736;2024-03-17T09:19:13;9.75;;;2.50;;
30647;SDS011;17683;53.360;9.736;2024-03-17T09:21:39;21.80;;;3.70;;
30647;SDS011;17683;53.360;9.736;2024-03-17T09:24:06;19.85;;;4.07;;
30647;SDS011;17683;53.360;9.736;2024-03-17T09:26:34;13.52;;;3.80;;
30647;SDS011;17683;53.360;9.736;2024-03-17T09:29:01;13.18;;;3.08;;
30647;SDS011;17683;53.360;9.736;2024-03-17T09:31:26;9.32;;;3.22;;
30647;SDS011;17683;53.360;9.736;2024-03-17T09:33:52;13.27;;;3.33;;
30647;SDS011;17683;53.360;9.736;2024-03-17T09:36:18;14.23;;;3.40;;
30647;SDS011;17683;53.360;9.736;2024-03-17T09:38:45;14.70;;;2.88;;
30647;SDS011;17683;53.360;9.736;2024-03-17T09:41:29;13.25;;;3.10;;
30647;SDS011;17683;53.360;9.736;2024-03-17T09:43:58;9.53;;;3.30;;
30647;SDS011;17683;53.360;9.736;2024-03-17T09:46:25;10.43;;;2.90;;
30647;SDS011;17683;53.360;9.736;2024-03-17T09:48:54;14.02;;;2.80;;
30647;SDS011;17683;53.360;9.736;2024-03-17T09:51:20;9.43;;;2.67;;
30647;SDS011;17683;53.360;9.736;2024-03-17T09:53:47;16.63;;;3.15;;
30647;SDS011;17683;53.360;9.736;2024-03-17T09:56:14;9.80;;;2.83;;
30647;SDS011;17683;53.360;9.736;2024-03-17T09:58:47;10.73;;;2.58;;
30647;SDS011;17683;53.360;9.736;2024-03-17T10:01:14;14.02;;;2.53;;
30647;SDS011;17683;53.360;9.736;2024-03-17T10:06:16;10.80;;;2.20;;
30647;SDS011;17683;53.360;9.736;2024-03-17T10:11:13;8.70;;;1.83;;
30647;SDS011;17683;53.360;9.736;2024-03-17T10:13:41;13.32;;;2.28;;
30647;SDS011;17683;53.360;9.736;2024-03-17T10:16:17;8.20;;;2.05;;
30647;SDS011;17683;53.360;9.736;2024-03-17T10:18:50;7.55;;;1.30;;
30647;SDS011;17683;53.360;9.736;2024-03-17T10:21:30;10.32;;;1.95;;
30647;SDS011;17683;53.360;9.736;2024-03-17T10:24:09;10.20;;;1.73;;
30647;SDS011;17683;53.360;9.736;2024-03-17T10:26:37;10.88;;;1.63;;
30647;SDS011;17683;53.360;9.736;2024-03-17T10:31:50;11.80;;;2.50;;
30647;SDS011;17683;53.360;9.736;2024-03-17T10:34:18;8.18;;;2.53;;
30647;SDS011;17683;53.360;9.736;2024-03-17T10:36:44;11.13;;;2.33;;
30647;SDS011;17683;53.360;9.736;2024-03-17T10:39:25;13.02;;;2.28;;
30647;SDS011;17683;53.360;9.736;2024-03-17T10:41:59;5.40;;;1.58;;
30647;SDS011;17683;53.360;9.736;2024-03-17T10:44:25;10.50;;;2.17;;
30647;SDS011;17683;53.360;9.736;2024-03-17T10:47:01;7.85;;;1.60;;
30647;SDS011;17683;53.360;9.736;2024-03-17T10:49:34;13.52;;;2.63;;
30647;SDS011;17683;53.360;9.736;2024-03-17T10:52:16;9.20;;;1.80;;
30647;SDS011;17683;53.360;9.736;2024-03-17T10:54:49;12.63;;;3.30;;
30647;SDS011;17683;53.360;9.736;2024-03-17T11:00:07;10.52;;;2.20;;
30647;SDS011;17683;53.360;9.736;2024-03-17T11:02:34;11.95;;;2.47;;
30647;SDS011;17683;53.360;9.736;2024-03-17T11:05:23;10.90;;;2.28;;
30647;SDS011;17683;53.360;9.736;2024-03-17T11:07:55;9.35;;;1.83;;
30647;SDS011;17683;53.360;9.736;2024-03-17T11:10:31;13.05;;;2.42;;
30647;SDS011;17683;53.360;9.736;2024-03-17T11:13:02;7.18;;;1.80;;
30647;SDS011;17683;53.360;9.736;2024-03-17T11:17:55;13.40;;;2.47;;
30647;SDS011;17683;53.360;9.736;2024-03-17T11:23:58;7.03;;;1.90;;
30647;SDS011;17683;53.360;9.736;2024-03-17T11:26:32;7.95;;;1.80;;
30647;SDS011;17683;53.360;9.736;2024-03-17T11:29:00;6.90;;;1.98;;
30647;SDS011;17683;53.360;9.736;2024-03-17T11:31:41;5.43;;;1.67;;
30647;SDS011;17683;53.360;9.736;2024-03-17T11:37:06;5.32;;;1.55;;
30647;SDS011;17683;53.360;9.736;2024-03-17T11:39:47;5.65;;;1.63;;
30647;SDS011;17683;53.360;9.736;2024-03-17T11:42:21;7.25;;;2.05;;
30647;SDS011;17683;53.360;9.736;2024-03-17T11:44:57;6.38;;;1.73;;
30647;SDS011;17683;53.360;9.736;2024-03-17T11:47:32;7.80;;;1.67;;
30647;SDS011;17683;53.360;9.736;2024-03-17T11:50:01;7.05;;;3.08;;
30647;SDS011;17683;53.360;9.736;2024-03-17T11:52:29;6.82;;;2.00;;
30647;SDS011;17683;53.360;9.736;2024-03-17T11:54:55;9.07;;;2.30;;
30647;SDS011;17683;53.360;9.736;2024-03-17T11:57:22;9.32;;;1.70;;
30647;SDS011;17683;53.360;9.736;2024-03-17T11:59:49;10.25;;;1.80;;
30647;SDS011;17683;53.360;9.736;2024-03-17T12:02:22;12.73;;;2.30;;
30647;SDS011;17683;53.360;9.736;2024-03-17T12:04:53;9.15;;;2.58;;
30647;SDS011;17683;53.360;9.736;2024-03-17T12:07:22;7.68;;;1.70;;
30647;SDS011;17683;53.360;9.736;2024-03-17T12:09:49;7.53;;;2.08;;
30647;SDS011;17683;53.360;9.736;2024-03-17T12:12:19;5.35;;;1.77;;
30647;SDS011;17683;53.360;9.736;2024-03-17T12:15:00;11.40;;;1.70;;
30647;SDS011;17683;53.360;9.736;2024-03-17T12:17:27;9.55;;;2.08;;
30647;SDS011;17683;53.360;9.736;2024-03-17T12:19:53;5.25;;;1.40;;
30647;SDS011;17683;53.360;9.736;2024-03-17T12:22:23;8.02;;;1.75;;
30647;SDS011;17683;53.360;9.736;2024-03-17T12:24:54;5.10;;;1.42;;
30647;SDS011;17683;53.360;9.736;2024-03-17T12:27:21;3.47;;;1.20;;
30647;SDS011;17683;53.360;9.736;2024-03-17T12:29:49;3.60;;;1.45;;
30647;SDS011;17683;53.360;9.736;2024-03-17T12:32:17;5.15;;;1.23;;
30647;SDS011;17683;53.360;9.736;2024-03-17T12:34:43;4.50;;;1.70;;
30647;SDS011;17683;53.360;9.736;2024-03-17T12:37:22;7.60;;;1.27;;
30647;SDS011;17683;53.360;9.736;2024-03-17T12:39:58;8.32;;;1.30;;
30647;SDS011;17683;53.360;9.736;2024-03-17T12:42:28;6.47;;;2.33;;
30647;SDS011;17683;53.360;9.736;2024-03-17T12:44:58;6.80;;;2.13;;
30647;SDS011;17683;53.360;9.736;2024-03-17T12:47:27;9.52;;;1.70;;
30647;SDS011;17683;53.360;9.736;2024-03-17T12:49:55;12.68;;;2.30;;
30647;SDS011;17683;53.360;9.736;2024-03-17T12:52:28;7.75;;;2.03;;
30647;SDS011;17683;53.360;9.736;2024-03-17T12:57:42;7.05;;;1.58;;
30647;SDS011;17683;53.360;9.736;2024-03-17T13:00:31;4.78;;;1.90;;
30647;SDS011;17683;53.360;9.736;2024-03-17T13:02:57;8.38;;;1.92;;
30647;SDS011;17683;53.360;9.736;2024-03-17T13:05:23;6.97;;;1.42;;
30647;SDS011;17683;53.360;9.736;2024-03-17T13:07:50;4.18;;;1.63;;
30647;SDS011;17683;53.360;9.736;2024-03-17T13:10:17;8.60;;;1.75;;
30647;SDS011;17683;53.360;9.736;2024-03-17T13:12:44;8.65;;;1.67;;
30647;SDS011;17683;53.360;9.736;2024-03-17T13:15:13;6.97;;;1.83;;
30647;SDS011;17683;53.360;9.736;2024-03-17T13:17:43;5.30;;;1.20;;
30647;SDS011;17683;53.360;9.736;2024-03-17T13:20:13;9.25;;;1.75;;
30647;SDS011;17683;53.360;9.736;2024-03-17T13:22:43;9.15;;;1.70;;
30647;SDS011;17683;53.360;9.736;2024-03-17T13:25:16;9.27;;;2.35;;
30647;SDS011;17683;53.360;9.736;2024-03-17T13:27:44;5.43;;;1.95;;
30647;SDS011;17683;53.360;9.736;2024-03-17T13:30:10;5.57;;;2.17;;
30647;SDS011;17683;53.360;9.736;2024-03-17T13:32:40;6.63;;;1.77;;
30647;SDS011;17683;53.360;9.736;2024-03-17T13:35:21;5.30;;;1.80;;
30647;SDS011;17683;53.360;9.736;2024-03-17T13:37:48;4.70;;;1.70;;
30647;SDS011;17683;53.360;9.736;2024-03-17T13:40:16;7.32;;;1.52;;
30647;SDS011;17683;53.360;9.736;2024-03-17T13:42:48;7.80;;;1.65;;
30647;SDS011;17683;53.360;9.736;2024-03-17T13:45:15;5.82;;;2.10;;
30647;SDS011;17683;53.360;9.736;2024-03-17T13:47:45;6.00;;;1.50;;
30647;SDS011;17683;53.360;9.736;2024-03-17T13:50:25;6.60;;;1.60;;
30647;SDS011;17683;53.360;9.736;2024-03-17T13:52:51;8.02;;;1.80;;
30647;SDS011;17683;53.360;9.736;2024-03-17T13:55:18;5.90;;;1.90;;
30647;SDS011;17683;53.360;9.736;2024-03-17T13:57:54;9.57;;;1.50;;
30647;SDS011;17683;53.360;9.736;2024-03-17T14:00:22;7.10;;;1.25;;
30647;SDS011;17683;53.360;9.736;2024-03-17T14:02:52;2.65;;;1.30;;
30647;SDS011;17683;53.360;9.736;2024-03-17T14:05:19;6.13;;;1.08;;
30647;SDS011;17683;53.360;9.736;2024-03-17T14:07:46;4.10;;;1.58;;
30647;SDS011;17683;53.360;9.736;2024-03-17T14:10:13;6.13;;;1.55;;
30647;SDS011;17683;53.360;9.736;2024-03-17T14:12:41;7.65;;;1.45;;
30647;SDS011;17683;53.360;9.736;2024-03-17T14:15:08;9.55;;;1.55;;
30647;SDS011;17683;53.360;9.736;2024-03-17T14:17:38;8.18;;;1.65;;
30647;SDS011;17683;53.360;9.736;2024-03-17T14:20:05;8.23;;;1.73;;
30647;SDS011;17683;53.360;9.736;2024-03-17T14:22:35;8.15;;;1.20;;
30647;SDS011;17683;53.360;9.736;2024-03-17T14:25:07;5.78;;;1.58;;
30647;SDS011;17683;53.360;9.736;2024-03-17T14:27:36;6.68;;;2.00;;
30647;SDS011;17683;53.360;9.736;2024-03-17T14:30:02;8.45;;;1.50;;
30647;SDS011;17683;53.360;9.736;2024-03-17T14:32:29;4.55;;;1.25;;
30647;SDS011;17683;53.360;9.736;2024-03-17T14:34:55;8.15;;;1.58;;
30647;SDS011;17683;53.360;9.736;2024-03-17T14:37:21;8.18;;;1.52;;
30647;SDS011;17683;53.360;9.736;2024-03-17T14:39:54;11.23;;;1.60;;
30647;SDS011;17683;53.360;9.736;2024-03-17T14:42:20;4.55;;;1.20;;
30647;SDS011;17683;53.360;9.736;2024-03-17T14:44:46;7.22;;;1.90;;
30647;SDS011;17683;53.360;9.736;2024-03-17T14:47:15;6.07;;;1.42;;
30647;SDS011;17683;53.360;9.736;2024-03-17T14:49:41;6.72;;;1.67;;
30647;SDS011;17683;53.360;9.736;2024-03-17T14:52:07;7.95;;;1.83;;
30647;SDS011;17683;53.360;9.736;2024-03-17T14:54:33;4.07;;;1.33;;
30647;SDS011;17683;53.360;9.736;2024-03-17T14:56:59;5.88;;;1.25;;
30647;SDS011;17683;53.360;9.736;2024-03-17T14:59:25;6.78;;;1.60;;
30647;SDS011;17683;53.360;9.736;2024-03-17T15:01:51;7.00;;;1.60;;
30647;SDS011;17683;53.360;9.736;2024-03-17T15:04:16;9.82;;;1.52;;
30647;SDS011;17683;53.360;9.736;2024-03-17T15:06:43;9.30;;;1.75;;
30647;SDS011;17683;53.360;9.736;2024-03-17T15:09:09;8.00;;;1.48;;
30647;SDS011;17683;53.360;9.736;2024-03-17T15:11:36;7.95;;;1.90;;
30647;SDS011;17683;53.360;9.736;2024-03-17T15:14:02;9.05;;;1.70;;